createdAt,value
2022-08-23T00:00:22.659Z,100973.22
2022-08-23T00:02:56.445Z,100968.00
2022-08-23T00:05:27.781Z,100968.97
2022-08-23T00:07:59.494Z,100964.72
2022-08-23T00:10:31.082Z,100966.44
2022-08-23T00:13:02.630Z,100962.97
2022-08-23T00:15:33.952Z,100968.47
2022-08-23T00:18:05.268Z,100971.44
2022-08-23T00:20:37.161Z,100973.19
2022-08-23T00:23:08.473Z,100967.00
2022-08-23T00:25:39.800Z,100968.03
2022-08-23T00:28:12.551Z,100969.09
2022-08-23T00:30:46.304Z,100969.09
2022-08-23T00:33:17.596Z,100965.63
2022-08-23T00:35:49.005Z,100972.06
2022-08-23T00:38:32.627Z,100976.59
2022-08-23T00:41:05.941Z,100971.38
2022-08-23T00:43:59.470Z,100956.22
2022-08-23T00:46:55.579Z,100961.72
2022-08-23T00:49:28.169Z,100954.16
2022-08-23T00:52:08.748Z,100973.66
2022-08-23T00:54:41.299Z,100964.78
2022-08-23T00:57:16.241Z,100958.59
2022-08-23T00:59:47.586Z,100955.13
2022-08-23T01:02:19.570Z,100956.25
2022-08-23T01:04:55.693Z,100948.16
2022-08-23T01:07:42.321Z,100951.91
2022-08-23T01:10:21.188Z,100953.81
2022-08-23T01:12:58.217Z,100954.94
2022-08-23T01:15:35.329Z,100958.66
2022-08-23T01:18:09.263Z,100957.28
2022-08-23T01:20:53.173Z,100959.97
2022-08-23T01:23:25.240Z,100961.97
2022-08-23T01:25:57.804Z,100963.91
2022-08-23T01:28:29.117Z,100963.13
2022-08-23T01:31:01.048Z,100958.84
2022-08-23T01:33:33.449Z,100963.28
2022-08-23T01:36:09.737Z,100965.13
2022-08-23T01:38:41.623Z,100969.72
2022-08-23T01:41:12.933Z,100964.34
2022-08-23T01:43:44.405Z,100972.59
2022-08-23T01:46:19.186Z,100962.94
2022-08-23T01:48:55.150Z,100957.09
2022-08-23T01:51:26.528Z,100967.13
2022-08-23T01:53:58.083Z,100955.91
2022-08-23T01:56:38.912Z,100960.44
2022-08-23T01:59:12.082Z,100959.72
2022-08-23T02:01:43.769Z,100961.66
2022-08-23T02:04:15.168Z,100956.69
2022-08-23T02:06:46.506Z,100969.38
2022-08-23T02:09:18.238Z,100963.44
2022-08-23T02:11:49.876Z,100960.03
2022-08-23T02:14:21.270Z,100958.56
2022-08-23T02:17:03.084Z,100954.13
2022-08-23T02:19:36.670Z,100961.47
2022-08-23T02:22:08.260Z,100959.03
2022-08-23T02:24:42.919Z,100952.84
2022-08-23T02:27:15.924Z,100964.75
2022-08-23T02:29:47.595Z,100964.91
2022-08-23T02:32:19.407Z,100966.09
2022-08-23T02:35:05.300Z,100963.03
2022-08-23T02:37:37.542Z,100970.31
2022-08-23T02:40:09.663Z,100972.38
2022-08-23T02:42:41.849Z,100978.00
2022-08-23T02:45:13.224Z,100973.72
2022-08-23T02:47:45.261Z,100976.66
2022-08-23T02:50:16.665Z,100973.34
2022-08-23T02:52:48.013Z,100971.59
2022-08-23T02:55:20.212Z,100977.06
2022-08-23T02:57:51.812Z,100977.22
2022-08-23T03:00:23.380Z,100972.19
2022-08-23T03:02:54.999Z,100976.63
2022-08-23T03:05:26.673Z,100980.25
2022-08-23T03:07:58.270Z,100979.53
2022-08-23T03:10:29.722Z,100978.66
2022-08-23T03:13:02.550Z,100976.94
2022-08-23T03:15:34.020Z,100978.75
2022-08-23T03:18:05.907Z,100970.03
2022-08-23T03:20:37.401Z,100981.38
2022-08-23T03:23:11.096Z,100976.94
2022-08-23T03:25:42.461Z,100988.56
2022-08-23T03:28:13.870Z,100975.41
2022-08-23T03:30:45.242Z,100981.53
2022-08-23T03:33:16.799Z,100986.97
2022-08-23T03:35:48.678Z,100985.38
2022-08-23T03:38:20.216Z,100988.16
2022-08-23T03:40:52.493Z,100991.97
2022-08-23T03:43:24.082Z,100984.38
2022-08-23T03:45:55.406Z,100996.03
2022-08-23T03:48:27.168Z,100992.13
2022-08-23T03:50:58.578Z,100991.31
2022-08-23T03:53:29.961Z,101000.50
2022-08-23T03:56:01.298Z,100992.88
2022-08-23T03:58:32.589Z,101001.16
2022-08-23T04:01:05.119Z,101006.91
2022-08-23T04:03:36.413Z,101013.44
2022-08-23T04:06:07.754Z,101004.94
2022-08-23T04:08:39.058Z,101012.50
2022-08-23T04:11:12.114Z,101017.88
2022-08-23T04:13:43.568Z,101019.91
2022-08-23T04:16:14.892Z,101021.03
2022-08-23T04:18:47.074Z,101021.31
2022-08-23T04:21:22.414Z,101021.56
2022-08-23T04:23:53.959Z,101018.34
2022-08-23T04:26:30.099Z,101037.38
2022-08-23T04:29:01.710Z,101021.59
2022-08-23T04:31:34.738Z,101018.22
2022-08-23T04:34:06.142Z,101027.22
2022-08-23T04:36:41.878Z,101032.81
2022-08-23T04:39:21.334Z,101036.63
2022-08-23T04:42:14.755Z,101037.78
2022-08-23T04:44:46.339Z,101043.22
2022-08-23T04:47:18.104Z,101043.28
2022-08-23T04:49:49.498Z,101041.53
2022-08-23T04:52:20.827Z,101042.41
2022-08-23T04:54:52.460Z,101038.78
2022-08-23T04:57:23.777Z,101041.41
2022-08-23T04:59:55.072Z,101035.28
2022-08-23T05:02:27.514Z,101046.78
2022-08-23T05:04:58.820Z,101046.78
2022-08-23T05:07:42.523Z,101041.66
2022-08-23T05:10:16.122Z,101055.72
2022-08-23T05:12:48.430Z,101062.81
2022-08-23T05:15:19.805Z,101047.84
2022-08-23T05:17:51.811Z,101061.81
2022-08-23T05:20:23.187Z,101065.38
2022-08-23T05:22:54.681Z,101063.50
2022-08-23T05:25:46.260Z,101064.31
2022-08-23T05:28:30.917Z,101047.38
2022-08-23T05:31:21.322Z,101067.41
2022-08-23T05:33:53.111Z,101067.00
2022-08-23T05:36:24.834Z,101073.41
2022-08-23T05:38:56.212Z,101068.47
2022-08-23T05:41:37.847Z,101079.97
2022-08-23T05:44:10.482Z,101071.31
2022-08-23T05:46:45.401Z,101067.75
2022-08-23T05:49:21.070Z,101077.50
2022-08-23T05:51:52.709Z,101076.63
2022-08-23T05:54:24.115Z,101082.97
2022-08-23T05:56:55.462Z,101083.81
2022-08-23T05:59:27.011Z,101090.13
2022-08-23T06:01:58.390Z,101096.50
2022-08-23T06:04:29.860Z,101092.81
2022-08-23T06:07:01.198Z,101090.50
2022-08-23T06:09:32.888Z,101078.56
2022-08-23T06:12:04.330Z,101089.06
2022-08-23T06:14:35.753Z,101085.00
2022-08-23T06:17:07.370Z,101083.84
2022-08-23T06:19:38.666Z,101095.81
2022-08-23T06:22:10.198Z,101096.69
2022-08-23T06:24:41.646Z,101091.63
2022-08-23T06:27:13.862Z,101079.56
2022-08-23T06:29:46.013Z,101097.66
2022-08-23T06:32:17.500Z,101101.75
2022-08-23T06:34:48.837Z,101105.81
2022-08-23T06:37:20.242Z,101086.38
2022-08-23T06:39:53.079Z,101106.22
2022-08-23T06:42:40.994Z,101102.97
2022-08-23T06:45:14.268Z,101104.28
2022-08-23T06:47:45.636Z,101106.22
2022-08-23T06:50:18.192Z,101111.25
2022-08-23T06:52:50.657Z,101099.94
2022-08-23T06:55:22.241Z,101095.69
2022-08-23T06:57:53.616Z,101100.59
2022-08-23T07:00:25.021Z,101107.25
2022-08-23T07:02:56.571Z,101102.53
2022-08-23T07:05:27.945Z,101100.88
2022-08-23T07:07:59.352Z,101116.13
2022-08-23T07:10:30.656Z,101108.47
2022-08-23T07:13:03.647Z,101106.44
2022-08-23T07:15:34.961Z,101110.38
2022-08-23T07:18:06.356Z,101116.56
2022-08-23T07:20:42.322Z,101123.47
2022-08-23T07:23:15.579Z,101114.63
2022-08-23T07:25:46.925Z,101122.13
2022-08-23T07:28:18.836Z,101120.41
2022-08-23T07:30:50.191Z,101124.03
2022-08-23T07:33:22.560Z,101122.06
2022-08-23T07:35:54.429Z,101133.81
2022-08-23T07:38:30.601Z,101132.72
2022-08-23T07:41:06.195Z,101119.03
2022-08-23T07:43:38.855Z,101120.66
2022-08-23T07:46:12.558Z,101120.22
2022-08-23T07:48:53.850Z,101131.72
2022-08-23T07:51:30.610Z,101127.03
2022-08-23T07:54:08.388Z,101126.78
2022-08-23T07:56:40.525Z,101128.75
2022-08-23T07:59:11.900Z,101126.97
2022-08-23T08:01:44.064Z,101134.09
2022-08-23T08:04:15.825Z,101134.41
2022-08-23T08:07:04.956Z,101132.59
2022-08-23T08:09:41.561Z,101145.84
2022-08-23T08:12:12.977Z,101137.66
2022-08-23T08:14:44.605Z,101143.66
2022-08-23T08:17:18.206Z,101141.44
2022-08-23T08:19:49.522Z,101141.19
2022-08-23T08:22:20.834Z,101147.78
2022-08-23T08:24:52.128Z,101154.38
2022-08-23T08:27:23.427Z,101150.91
2022-08-23T08:29:55.220Z,101150.69
2022-08-23T08:32:26.749Z,101152.19
2022-08-23T08:34:58.048Z,101150.69
2022-08-23T08:37:30.886Z,101157.16
2022-08-23T08:40:02.788Z,101158.00
2022-08-23T08:42:48.597Z,101144.50
2022-08-23T08:45:27.178Z,101152.19
2022-08-23T08:48:13.526Z,101146.00
2022-08-23T08:51:01.114Z,101152.81
2022-08-23T08:53:39.874Z,101146.50
2022-08-23T08:56:22.165Z,101153.69
2022-08-23T08:59:00.046Z,101149.34
2022-08-23T09:01:34.975Z,101150.94
2022-08-23T09:04:07.505Z,101150.22
2022-08-23T09:06:57.170Z,101144.13
2022-08-23T09:09:44.947Z,101139.00
2022-08-23T09:12:24.660Z,101139.47
2022-08-23T09:15:15.060Z,101139.91
2022-08-23T09:17:58.714Z,101150.91
2022-08-23T09:20:33.197Z,101152.91
2022-08-23T09:23:29.386Z,101155.09
2022-08-23T09:26:05.052Z,101149.25
2022-08-23T09:28:37.483Z,101154.94
2022-08-23T09:31:08.858Z,101162.00
2022-08-23T09:33:45.987Z,101145.69
2022-08-23T09:36:25.290Z,101158.00
2022-08-23T09:39:30.818Z,101141.84
2022-08-23T09:42:02.407Z,101146.09
2022-08-23T09:44:43.269Z,101142.63
2022-08-23T09:47:17.100Z,101140.94
2022-08-23T09:49:48.647Z,101141.63
2022-08-23T09:52:41.418Z,101130.41
2022-08-23T09:55:31.948Z,101121.84
2022-08-23T09:58:06.987Z,101128.09
2022-08-23T10:00:40.865Z,101119.50
2022-08-23T10:03:28.813Z,101122.91
2022-08-23T10:06:01.654Z,101125.25
2022-08-23T10:08:43.105Z,101127.28
2022-08-23T10:11:24.337Z,101127.56
2022-08-23T10:13:57.132Z,101119.25
2022-08-23T10:16:47.957Z,101109.50
2022-08-23T10:20:04.764Z,101110.81
2022-08-23T10:22:52.083Z,101115.88
2022-08-23T10:25:35.654Z,101118.75
2022-08-23T10:28:44.438Z,101125.94
2022-08-23T10:31:48.350Z,101120.66
2022-08-23T10:34:33.469Z,101117.03
2022-08-23T10:37:27.683Z,101114.78
2022-08-23T10:40:31.169Z,101113.06
2022-08-23T10:43:22.558Z,101095.16
2022-08-23T10:46:00.181Z,101097.75
2022-08-23T10:48:52.082Z,101100.13
2022-08-23T10:51:31.804Z,101104.19
2022-08-23T10:54:12.488Z,101099.63
2022-08-23T10:56:50.246Z,101119.53
2022-08-23T10:59:25.889Z,101100.50
2022-08-23T11:02:25.600Z,101092.72
2022-08-23T11:05:07.174Z,101092.72
2022-08-23T11:07:41.928Z,101080.47
2022-08-23T11:10:34.734Z,101088.69
2022-08-23T11:13:15.654Z,101088.97
2022-08-23T11:16:15.044Z,101095.47
2022-08-23T11:18:49.450Z,101099.06
2022-08-23T11:21:30.679Z,101100.38
2022-08-23T11:24:02.394Z,101102.28
2022-08-23T11:26:37.658Z,101095.94
2022-08-23T11:29:12.317Z,101081.25
2022-08-23T11:31:58.546Z,101089.31
2022-08-23T11:34:42.718Z,101095.81
2022-08-23T11:37:20.050Z,101083.81
2022-08-23T11:39:57.704Z,101093.47
2022-08-23T11:42:29.145Z,101102.09
2022-08-23T11:45:01.067Z,101093.31
2022-08-23T11:47:42.166Z,101097.91
2022-08-23T11:50:59.817Z,101089.84
2022-08-23T11:53:43.271Z,101079.19
2022-08-23T11:56:45.998Z,101095.91
2022-08-23T12:00:02.144Z,101081.63
2022-08-23T12:02:42.616Z,101082.31
2022-08-23T12:05:15.013Z,101103.69
2022-08-23T12:08:03.989Z,101087.69
2022-08-23T12:10:41.573Z,101086.25
2022-08-23T12:13:19.428Z,101081.63
2022-08-23T12:16:16.698Z,101074.69
2022-08-23T12:18:48.634Z,101087.25
2022-08-23T12:21:47.317Z,101073.94
2022-08-23T12:24:24.488Z,101081.13
2022-08-23T12:27:25.797Z,101079.09
2022-08-23T12:30:07.407Z,101071.75
2022-08-23T12:32:42.168Z,101075.34
2022-08-23T12:35:22.541Z,101064.38
2022-08-23T12:38:12.247Z,101078.22
2022-08-23T12:40:49.968Z,101064.06
2022-08-23T12:43:27.215Z,101061.47
2022-08-23T12:46:02.086Z,101055.41
2022-08-23T12:48:44.758Z,101057.41
2022-08-23T12:51:17.219Z,101071.09
2022-08-23T12:53:48.652Z,101072.75
2022-08-23T12:56:31.425Z,101064.22
2022-08-23T12:59:07.487Z,101054.81
2022-08-23T13:01:39.933Z,101061.06
2022-08-23T13:04:15.593Z,101056.94
2022-08-23T13:06:52.623Z,101064.91
2022-08-23T13:09:31.285Z,101049.78
2022-08-23T13:12:04.679Z,101056.69
2022-08-23T13:14:48.826Z,101051.91
2022-08-23T13:17:40.933Z,101060.59
2022-08-23T13:20:21.805Z,101051.09
2022-08-23T13:23:01.487Z,101045.16
2022-08-23T13:25:35.716Z,101053.94
2022-08-23T13:28:29.422Z,101046.84
2022-08-23T13:31:04.108Z,101047.84
2022-08-23T13:33:35.918Z,101061.41
2022-08-23T13:36:21.409Z,101048.69
2022-08-23T13:38:52.978Z,101066.25
2022-08-23T13:41:39.099Z,101049.53
2022-08-23T13:44:12.030Z,101043.84
2022-08-23T13:46:47.507Z,101049.53
2022-08-23T13:49:27.348Z,101050.09
2022-08-23T13:52:11.927Z,101050.09
2022-08-23T13:54:51.242Z,101051.53
2022-08-23T13:57:26.463Z,101055.38
2022-08-23T13:59:59.861Z,101055.53
2022-08-23T14:02:31.158Z,101051.22
2022-08-23T14:05:03.661Z,101055.88
2022-08-23T14:07:35.469Z,101050.88
2022-08-23T14:10:07.398Z,101047.28
2022-08-23T14:12:38.853Z,101049.88
2022-08-23T14:15:15.964Z,101044.47
2022-08-23T14:17:50.234Z,101036.88
2022-08-23T14:23:14.376Z,101048.81
2022-08-23T14:25:56.122Z,101039.94
2022-08-23T14:28:29.904Z,101040.25
2022-08-23T14:31:02.501Z,101050.19
2022-08-23T14:33:33.960Z,101050.03
2022-08-23T14:36:06.824Z,101030.53
2022-08-23T14:38:39.457Z,101036.72
2022-08-23T14:41:16.845Z,101026.63
2022-08-23T14:43:49.612Z,101028.09
2022-08-23T14:46:23.053Z,101023.78
2022-08-23T14:48:54.390Z,101034.34
2022-08-23T14:51:30.080Z,101025.03
2022-08-23T14:54:03.825Z,101019.88
2022-08-23T14:56:35.200Z,101023.63
2022-08-23T14:59:06.844Z,101021.91
2022-08-23T15:01:39.451Z,101019.16
2022-08-23T15:04:16.847Z,101021.03
2022-08-23T15:07:16.170Z,101016.41
2022-08-23T15:09:41.622Z,101023.47
2022-08-23T15:15:07.246Z,101023.06
2022-08-23T15:17:46.784Z,101025.41
2022-08-23T15:20:24.974Z,101023.97
2022-08-23T15:22:57.392Z,101030.22
2022-08-23T15:25:32.133Z,101019.28
2022-08-23T15:28:10.809Z,101028.81
2022-08-23T15:30:45.672Z,101026.53
2022-08-23T15:33:18.672Z,101018.03
2022-08-23T15:35:52.085Z,101020.50
2022-08-23T15:38:24.991Z,101024.53
2022-08-23T15:40:56.831Z,101028.00
2022-08-23T15:43:34.497Z,101031.03
2022-08-23T15:46:09.176Z,101019.22
2022-08-23T15:48:48.514Z,101014.91
2022-08-23T15:51:20.267Z,101026.16
2022-08-23T15:53:51.783Z,101020.97
2022-08-23T15:56:30.257Z,101020.09
2022-08-23T15:59:01.837Z,100997.78
2022-08-23T16:01:33.836Z,101012.91
2022-08-23T16:04:05.353Z,101009.88
2022-08-23T16:06:39.261Z,101006.28
2022-08-23T16:09:19.196Z,100998.09
2022-08-23T16:11:51.503Z,101010.06
2022-08-23T16:14:22.901Z,101008.94
2022-08-23T16:16:54.427Z,101005.16
2022-08-23T16:19:26.755Z,101005.72
2022-08-23T16:21:58.890Z,101003.72
2022-08-23T16:24:30.311Z,101003.84
2022-08-23T16:27:01.673Z,101004.41
2022-08-23T16:29:35.854Z,101004.84
2022-08-23T16:32:08.607Z,101018.06
2022-08-23T16:34:39.989Z,101007.81
2022-08-23T16:37:11.302Z,101006.91
2022-08-23T16:39:44.844Z,101009.06
2022-08-23T16:42:16.240Z,101004.44
2022-08-23T16:44:47.524Z,101012.94
2022-08-23T16:47:19.095Z,100999.53
2022-08-23T16:49:50.427Z,101013.34
2022-08-23T16:52:34.433Z,101021.06
2022-08-23T16:55:09.890Z,101008.97
2022-08-23T16:57:41.749Z,101016.69
2022-08-23T17:00:14.128Z,101014.63
2022-08-23T17:02:45.621Z,101012.56
2022-08-23T17:05:18.996Z,101012.72
2022-08-23T17:07:52.882Z,101015.25
2022-08-23T17:10:25.632Z,101017.38
2022-08-23T17:12:57.827Z,101021.66
2022-08-23T17:15:34.493Z,101014.88
2022-08-23T17:18:06.254Z,101026.31
2022-08-23T17:20:39.200Z,101017.81
2022-08-23T17:23:11.350Z,101024.63
2022-08-23T17:25:47.549Z,101027.03
2022-08-23T17:28:18.832Z,101027.41
2022-08-23T17:30:50.204Z,101031.56
2022-08-23T17:33:21.580Z,101034.94
2022-08-23T17:35:53.113Z,101031.88
2022-08-23T17:38:24.443Z,101034.41
2022-08-23T17:40:55.793Z,101032.44
2022-08-23T17:43:27.198Z,101042.00
2022-08-23T17:45:58.613Z,101041.66
2022-08-23T17:48:29.925Z,101038.66
2022-08-23T17:51:01.494Z,101045.75
2022-08-23T17:53:33.074Z,101043.91
2022-08-23T17:56:06.433Z,101039.47
2022-08-23T17:58:41.811Z,101052.13
2022-08-23T18:01:13.899Z,101050.16
2022-08-23T18:03:45.238Z,101058.94
2022-08-23T18:06:17.544Z,101051.50
2022-08-23T18:08:48.982Z,101056.81
2022-08-23T18:11:20.300Z,101053.31
2022-08-23T18:13:51.584Z,101064.69
2022-08-23T18:16:22.979Z,101063.69
2022-08-23T18:18:54.850Z,101064.53
2022-08-23T18:21:29.044Z,101069.91
2022-08-23T18:24:02.332Z,101069.75
2022-08-23T18:26:54.148Z,101062.41
2022-08-23T18:29:25.645Z,101064.25
2022-08-23T18:31:57.071Z,101068.53
2022-08-23T18:34:29.378Z,101075.53
2022-08-23T18:37:01.011Z,101067.38
2022-08-23T18:39:32.467Z,101074.16
2022-08-23T18:42:05.675Z,101069.28
2022-08-23T18:44:36.969Z,101087.13
2022-08-23T18:47:08.676Z,101085.09
2022-08-23T18:49:40.080Z,101097.50
2022-08-23T18:52:12.287Z,101098.06
2022-08-23T18:54:43.709Z,101099.59
2022-08-23T18:57:16.256Z,101103.72
2022-08-23T18:59:47.670Z,101101.53
2022-08-23T19:02:19.422Z,101103.81
2022-08-23T19:04:53.013Z,101108.16
2022-08-23T19:07:24.325Z,101111.31
2022-08-23T19:09:55.909Z,101115.31
2022-08-23T19:12:28.462Z,101110.31
2022-08-23T19:15:00.024Z,101112.69
2022-08-23T19:17:31.885Z,101109.44
2022-08-23T19:20:05.992Z,101113.34
2022-08-23T19:22:37.676Z,101124.72
2022-08-23T19:25:09.253Z,101118.03
2022-08-23T19:27:40.708Z,101125.63
2022-08-23T19:30:13.262Z,101127.22
2022-08-23T19:32:48.733Z,101141.94
2022-08-23T19:35:21.042Z,101134.53
2022-08-23T19:37:52.338Z,101147.44
2022-08-23T19:40:23.757Z,101142.84
2022-08-23T19:42:55.366Z,101139.75
2022-08-23T19:45:27.208Z,101152.63
2022-08-23T19:48:03.755Z,101151.28
2022-08-23T19:50:35.295Z,101157.00
2022-08-23T19:53:07.642Z,101151.94
2022-08-23T19:55:41.755Z,101148.88
2022-08-23T19:58:14.090Z,101152.75
2022-08-23T20:00:45.714Z,101157.78
2022-08-23T20:03:17.115Z,101171.31
2022-08-23T20:05:48.548Z,101166.28
2022-08-23T20:08:19.905Z,101172.75
2022-08-23T20:10:51.355Z,101179.63
2022-08-23T20:13:23.309Z,101177.00
2022-08-23T20:15:56.411Z,101179.31
2022-08-23T20:18:27.807Z,101177.78
2022-08-23T20:20:59.358Z,101178.84
2022-08-23T20:23:49.119Z,101188.00
2022-08-23T20:26:21.059Z,101182.03
2022-08-23T20:29:00.001Z,101187.72
2022-08-23T20:31:36.258Z,101177.25
2022-08-23T20:34:08.825Z,101186.50
2022-08-23T20:36:40.741Z,101193.06
2022-08-23T20:39:12.341Z,101192.38
2022-08-23T20:41:43.642Z,101189.09
2022-08-23T20:44:16.128Z,101184.81
2022-08-23T20:46:53.177Z,101183.34
2022-08-23T20:49:25.858Z,101187.22
2022-08-23T20:51:57.174Z,101194.53
2022-08-23T20:54:28.482Z,101185.22
2022-08-23T20:56:59.874Z,101198.56
2022-08-23T20:59:31.296Z,101187.06
2022-08-23T21:02:02.782Z,101184.44
2022-08-23T21:04:34.110Z,101187.25
2022-08-23T21:07:05.708Z,101198.06
2022-08-23T21:09:37.093Z,101197.09
2022-08-23T21:12:09.473Z,101190.72
2022-08-23T21:14:40.859Z,101191.78
2022-08-23T21:17:12.168Z,101198.75
2022-08-23T21:19:44.159Z,101189.06
2022-08-23T21:22:15.468Z,101197.09
2022-08-23T21:24:46.754Z,101199.09
2022-08-23T21:27:20.114Z,101190.41
2022-08-23T21:29:51.399Z,101204.97
2022-08-23T21:32:22.704Z,101207.75
2022-08-23T21:34:54.066Z,101204.34
2022-08-23T21:37:26.102Z,101201.91
2022-08-23T21:39:57.461Z,101194.25
2022-08-23T21:42:30.456Z,101195.13
2022-08-23T21:45:01.889Z,101208.00
2022-08-23T21:47:34.974Z,101202.06
2022-08-23T21:50:07.037Z,101196.75
2022-08-23T21:52:38.407Z,101202.31
2022-08-23T21:55:10.026Z,101200.69
2022-08-23T21:57:43.265Z,101198.25
2022-08-23T22:00:18.402Z,101180.66
2022-08-23T22:02:49.791Z,101198.44
2022-08-23T22:05:21.141Z,101194.94
2022-08-23T22:07:53.446Z,101202.09
2022-08-23T22:10:24.772Z,101206.78
2022-08-23T22:12:56.073Z,101204.19
2022-08-23T22:15:27.562Z,101206.88
2022-08-23T22:18:00.567Z,101189.19
2022-08-23T22:20:32.896Z,101196.25
2022-08-23T22:23:04.428Z,101192.94
2022-08-23T22:25:35.766Z,101197.38
2022-08-23T22:28:07.976Z,101199.28
2022-08-23T22:30:42.176Z,101186.91
2022-08-23T22:33:13.603Z,101201.28
2022-08-23T22:35:48.449Z,101187.41
2022-08-23T22:38:20.480Z,101206.16
2022-08-23T22:40:52.604Z,101204.59
2022-08-23T22:43:24.192Z,101206.56
2022-08-23T22:45:59.766Z,101206.81
2022-08-23T22:48:35.003Z,101199.16
2022-08-23T22:51:14.136Z,101208.19
2022-08-23T22:53:48.696Z,101206.72
2022-08-23T22:56:23.106Z,101207.88
2022-08-23T22:58:54.510Z,101214.47
2022-08-23T23:01:32.093Z,101209.41
2022-08-23T23:04:08.232Z,101203.38
2022-08-23T23:06:39.905Z,101206.22
2022-08-23T23:09:13.187Z,101202.91
2022-08-23T23:11:45.570Z,101203.06
2022-08-23T23:14:18.728Z,101214.03
2022-08-23T23:16:50.741Z,101213.31
2022-08-23T23:19:40.866Z,101214.34
2022-08-23T23:22:12.170Z,101216.28
2022-08-23T23:24:43.523Z,101215.41
2022-08-23T23:27:14.848Z,101218.09
2022-08-23T23:29:46.650Z,101219.72
2022-08-23T23:32:18.166Z,101217.84
2022-08-23T23:34:49.565Z,101219.41
2022-08-23T23:37:20.900Z,101218.31
2022-08-23T23:39:52.262Z,101223.38
2022-08-23T23:42:23.565Z,101217.03
2022-08-23T23:44:54.966Z,101219.31
2022-08-23T23:47:26.826Z,101209.25
2022-08-23T23:49:58.281Z,101220.81
2022-08-23T23:52:29.576Z,101217.25
2022-08-23T23:55:03.576Z,101212.88
2022-08-23T23:57:35.126Z,101211.38
